createdAt,value
2018-06-20T00:00:48.893Z,63.30
2018-06-20T00:03:16.291Z,63.40
2018-06-20T00:05:43.677Z,63.40
2018-06-20T00:08:11.099Z,63.50
2018-06-20T00:10:38.503Z,63.40
2018-06-20T00:13:05.887Z,63.50
2018-06-20T00:15:33.286Z,63.50
2018-06-20T00:18:00.724Z,63.60
2018-06-20T00:20:28.135Z,63.60
2018-06-20T00:22:55.540Z,63.80
2018-06-20T00:25:22.949Z,63.80
2018-06-20T00:27:50.496Z,63.90
2018-06-20T00:30:17.899Z,63.90
2018-06-20T00:32:45.275Z,64.10
2018-06-20T00:35:12.664Z,64.10
2018-06-20T00:37:40.053Z,64.20
2018-06-20T00:40:07.461Z,64.20
2018-06-20T00:42:34.844Z,64.30
2018-06-20T00:45:02.262Z,64.30
2018-06-20T00:47:29.652Z,64.50
2018-06-20T00:49:57.196Z,64.30
2018-06-20T00:52:24.591Z,64.20
2018-06-20T00:54:52.007Z,64.40
2018-06-20T00:57:19.400Z,64.30
2018-06-20T00:59:46.815Z,64.20
2018-06-20T01:02:14.223Z,64.30
2018-06-20T01:04:41.607Z,64.70
2018-06-20T01:07:09.001Z,64.80
2018-06-20T01:09:36.397Z,64.80
2018-06-20T01:12:03.827Z,64.60
2018-06-20T01:14:31.217Z,65.00
2018-06-20T01:16:58.630Z,65.00
2018-06-20T01:19:26.004Z,65.10
2018-06-20T01:21:53.390Z,65.30
2018-06-20T01:24:20.766Z,65.30
2018-06-20T01:26:48.167Z,65.30
2018-06-20T01:29:15.558Z,65.50
2018-06-20T01:31:42.969Z,65.60
2018-06-20T01:34:10.396Z,65.80
2018-06-20T01:36:37.789Z,66.20
2018-06-20T01:39:07.559Z,66.20
2018-06-20T01:41:34.951Z,66.10
2018-06-20T01:44:02.919Z,66.40
2018-06-20T01:46:30.339Z,66.60
2018-06-20T01:48:57.737Z,66.60
2018-06-20T01:51:25.155Z,66.90
2018-06-20T01:53:52.631Z,66.90
2018-06-20T01:56:20.069Z,67.20
2018-06-20T01:58:47.524Z,67.10
2018-06-20T02:01:14.931Z,67.10
2018-06-20T02:03:42.330Z,67.20
2018-06-20T02:06:09.752Z,67.10
2018-06-20T02:08:37.211Z,68.20
2018-06-20T02:11:04.650Z,67.30
2018-06-20T02:13:32.087Z,67.80
2018-06-20T02:15:59.498Z,67.60
2018-06-20T02:18:26.887Z,68.20
2018-06-20T02:20:54.304Z,68.80
2018-06-20T02:23:21.700Z,68.50
2018-06-20T02:25:49.120Z,68.40
2018-06-20T02:28:16.556Z,68.60
2018-06-20T02:30:43.949Z,68.70
2018-06-20T02:33:11.421Z,68.90
2018-06-20T02:35:38.803Z,69.00
2018-06-20T02:38:06.216Z,68.90
2018-06-20T02:40:33.588Z,68.90
2018-06-20T02:43:01.003Z,69.20
2018-06-20T02:45:28.432Z,69.20
2018-06-20T02:47:58.001Z,68.90
2018-06-20T02:50:25.425Z,68.80
2018-06-20T02:52:52.895Z,69.10
2018-06-20T02:55:20.340Z,69.10
2018-06-20T02:57:47.758Z,69.20
2018-06-20T03:00:15.192Z,69.40
2018-06-20T03:02:42.594Z,69.50
2018-06-20T03:05:10.023Z,69.30
2018-06-20T03:10:15.577Z,69.20
2018-06-20T03:12:42.981Z,69.20
2018-06-20T03:15:10.405Z,69.20
2018-06-20T03:17:37.847Z,69.20
2018-06-20T03:20:05.501Z,69.50
2018-06-20T03:22:32.888Z,69.50
2018-06-20T03:25:00.336Z,69.50
2018-06-20T03:27:27.795Z,69.60
2018-06-20T03:29:55.267Z,70.40
2018-06-20T03:32:22.669Z,70.00
2018-06-20T03:34:50.099Z,70.20
2018-06-20T03:37:17.539Z,70.10
2018-06-20T03:39:44.951Z,70.20
2018-06-20T03:42:12.332Z,70.10
2018-06-20T03:44:39.710Z,70.20
2018-06-20T03:47:07.123Z,70.30
2018-06-20T03:49:34.506Z,71.20
2018-06-20T03:52:01.928Z,70.40
2018-06-20T03:54:29.380Z,70.50
2018-06-20T03:56:56.765Z,70.70
2018-06-20T03:59:24.174Z,70.80
2018-06-20T04:01:51.578Z,71.00
2018-06-20T04:04:18.995Z,71.00
2018-06-20T04:06:46.422Z,71.20
2018-06-20T04:09:13.832Z,71.30
2018-06-20T04:11:41.886Z,71.30
2018-06-20T04:14:09.847Z,71.50
2018-06-20T04:16:37.470Z,71.70
2018-06-20T04:19:04.947Z,71.70
2018-06-20T04:21:32.361Z,72.00
2018-06-20T04:23:59.746Z,72.30
2018-06-20T04:26:27.185Z,72.30
2018-06-20T04:28:54.594Z,72.30
2018-06-20T04:31:21.997Z,72.70
2018-06-20T04:33:49.375Z,72.70
2018-06-20T04:36:16.777Z,72.90
2018-06-20T04:38:44.162Z,73.00
2018-06-20T04:43:38.947Z,73.30
2018-06-20T04:46:06.463Z,73.50
2018-06-20T04:48:33.847Z,73.70
2018-06-20T04:51:01.228Z,73.90
2018-06-20T04:53:28.628Z,73.90
2018-06-20T04:55:56.032Z,74.00
2018-06-20T04:58:23.423Z,74.10
2018-06-20T05:00:50.832Z,74.10
2018-06-20T05:03:18.259Z,74.30
2018-06-20T05:05:45.695Z,74.70
2018-06-20T05:08:13.107Z,75.20
2018-06-20T05:10:40.543Z,75.50
2018-06-20T05:13:07.938Z,75.50
2018-06-20T05:15:35.339Z,75.30
2018-06-20T05:18:02.909Z,75.10
2018-06-20T05:20:30.337Z,74.80
2018-06-20T05:22:57.785Z,74.60
2018-06-20T05:25:25.194Z,74.30
2018-06-20T05:27:52.646Z,73.80
2018-06-20T05:30:20.039Z,73.60
2018-06-20T05:32:47.487Z,73.30
2018-06-20T05:35:14.899Z,73.20
2018-06-20T05:37:42.991Z,73.00
2018-06-20T05:40:10.473Z,72.90
2018-06-20T05:42:37.891Z,72.90
2018-06-20T05:45:05.345Z,72.70
2018-06-20T05:47:32.740Z,72.50
2018-06-20T05:50:00.202Z,72.50
2018-06-20T05:54:55.012Z,72.60
2018-06-20T05:57:22.385Z,72.40
2018-06-20T05:59:49.777Z,72.10
2018-06-20T06:02:17.194Z,71.90
2018-06-20T06:04:44.579Z,72.50
2018-06-20T06:07:11.971Z,71.40
2018-06-20T06:09:39.388Z,72.00
2018-06-20T06:12:06.976Z,71.40
2018-06-20T06:14:34.615Z,71.20
2018-06-20T06:17:02.051Z,71.00
2018-06-20T06:19:29.436Z,70.50
2018-06-20T06:21:56.828Z,70.30
2018-06-20T06:24:24.362Z,70.00
2018-06-20T06:26:51.769Z,70.60
2018-06-20T06:29:19.265Z,69.80
2018-06-20T06:31:46.922Z,69.30
2018-06-20T06:34:14.338Z,69.10
2018-06-20T06:36:41.814Z,68.60
2018-06-20T06:39:10.727Z,68.50
2018-06-20T06:41:38.157Z,68.50
2018-06-20T06:44:05.623Z,68.60
2018-06-20T06:46:33.307Z,68.60
2018-06-20T06:49:00.735Z,68.70
2018-06-20T06:51:28.178Z,68.50
2018-06-20T06:53:55.577Z,68.20
2018-06-20T06:56:23.019Z,68.00
2018-06-20T06:58:50.424Z,67.40
2018-06-20T07:01:17.813Z,67.60
2018-06-20T07:03:45.223Z,67.40
2018-06-20T07:06:12.613Z,68.00
2018-06-20T07:08:40.044Z,68.80
2018-06-20T07:11:07.696Z,68.50
2018-06-20T07:13:35.116Z,67.90
2018-06-20T07:16:02.565Z,66.70
2018-06-20T07:18:30.028Z,65.80
2018-06-20T07:20:57.416Z,64.70
2018-06-20T07:23:24.807Z,64.30
2018-06-20T07:25:52.233Z,63.80
2018-06-20T07:28:19.674Z,63.10
2018-06-20T07:30:47.223Z,62.10
2018-06-20T07:33:14.633Z,61.70
2018-06-20T07:38:09.503Z,61.40
2018-06-20T07:40:36.979Z,61.00
2018-06-20T07:43:04.363Z,61.10
2018-06-20T07:45:31.761Z,61.10
2018-06-20T07:47:59.353Z,60.90
2018-06-20T07:50:26.608Z,61.30
2018-06-20T07:52:54.004Z,61.70
2018-06-20T07:55:21.430Z,61.70
2018-06-20T07:57:48.827Z,61.80
2018-06-20T08:00:26.512Z,61.80
2018-06-20T08:03:12.545Z,61.20
2018-06-20T08:06:43.495Z,61.50
2018-06-20T08:09:16.696Z,61.00
2018-06-20T08:11:49.790Z,61.30
2018-06-20T08:14:22.928Z,61.70
2018-06-20T08:16:56.065Z,61.70
2018-06-20T08:19:58.724Z,61.80
2018-06-20T08:22:27.295Z,61.30
2018-06-20T08:25:03.812Z,60.90
2018-06-20T08:27:32.646Z,60.80
2018-06-20T08:30:01.792Z,60.80
2018-06-20T08:32:29.399Z,60.40
2018-06-20T08:34:57.359Z,60.00
2018-06-20T08:37:24.875Z,59.80
2018-06-20T08:39:52.280Z,60.00
2018-06-20T08:42:19.984Z,60.70
2018-06-20T08:44:47.487Z,60.60
2018-06-20T08:47:14.871Z,60.40
2018-06-20T08:49:42.304Z,60.40
2018-06-20T08:52:09.758Z,60.50
2018-06-20T08:54:37.151Z,60.00
2018-06-20T08:57:04.702Z,60.00
2018-06-20T08:59:32.139Z,59.80
2018-06-20T09:01:59.588Z,60.10
2018-06-20T09:04:32.873Z,59.70
2018-06-20T09:07:06.027Z,59.60
2018-06-20T09:09:39.103Z,59.30
2018-06-20T09:12:12.237Z,59.50
2018-06-20T09:14:45.409Z,58.70
2018-06-20T09:17:18.421Z,58.50
2018-06-20T09:19:47.364Z,59.00
2018-06-20T09:22:15.925Z,58.00
2018-06-20T09:24:43.493Z,57.20
2018-06-20T09:27:10.968Z,57.10
2018-06-20T09:29:38.355Z,56.60
2018-06-20T09:32:06.157Z,56.60
2018-06-20T09:34:33.543Z,57.00
2018-06-20T09:37:01.167Z,57.00
2018-06-20T09:39:28.723Z,55.80
2018-06-20T09:41:56.167Z,56.30
2018-06-20T09:44:23.653Z,56.50
2018-06-20T09:46:51.068Z,56.70
2018-06-20T09:49:18.478Z,56.20
2018-06-20T09:51:47.562Z,56.40
2018-06-20T09:54:15.150Z,56.10
2018-06-20T09:56:42.561Z,56.10
2018-06-20T09:59:15.712Z,55.80
2018-06-20T10:01:48.869Z,56.00
2018-06-20T10:04:22.140Z,56.30
2018-06-20T10:06:55.379Z,56.50
2018-06-20T10:09:28.576Z,56.80
2018-06-20T10:12:01.720Z,56.80
2018-06-20T10:14:29.237Z,57.00
2018-06-20T10:16:56.625Z,56.90
2018-06-20T10:19:25.041Z,56.90
2018-06-20T10:21:52.686Z,57.00
2018-06-20T10:24:20.172Z,56.90
2018-06-20T10:26:47.615Z,57.20
2018-06-20T10:29:15.028Z,57.10
2018-06-20T10:31:42.446Z,56.50
2018-06-20T10:34:09.909Z,56.50
2018-06-20T10:36:37.278Z,56.00
2018-06-20T10:39:06.686Z,55.40
2018-06-20T10:41:37.873Z,55.20
2018-06-20T10:44:12.475Z,54.70
2018-06-20T10:46:45.984Z,54.60
2018-06-20T10:49:14.401Z,54.90
2018-06-20T10:51:42.232Z,54.60
2018-06-20T10:54:09.693Z,54.10
2018-06-20T10:56:42.879Z,53.70
2018-06-20T10:59:16.509Z,53.80
2018-06-20T11:01:49.579Z,53.00
2018-06-20T11:04:22.809Z,52.80
2018-06-20T11:06:55.977Z,52.60
2018-06-20T11:09:29.279Z,52.40
2018-06-20T11:12:02.363Z,52.70
2018-06-20T11:14:29.771Z,52.60
2018-06-20T11:16:57.177Z,51.90
2018-06-20T11:19:24.685Z,51.30
2018-06-20T11:21:52.111Z,51.70
2018-06-20T11:24:19.509Z,50.80
2018-06-20T11:26:46.912Z,51.10
2018-06-20T11:29:14.813Z,50.80
2018-06-20T11:31:42.300Z,50.90
2018-06-20T11:34:09.730Z,50.20
2018-06-20T11:36:37.152Z,49.30
2018-06-20T11:39:06.892Z,48.90
2018-06-20T11:41:34.301Z,48.60
2018-06-20T11:44:01.725Z,48.30
2018-06-20T11:46:34.814Z,49.20
2018-06-20T11:49:02.255Z,49.30
2018-06-20T11:51:29.711Z,49.30
2018-06-20T11:53:57.129Z,49.10
2018-06-20T11:56:24.770Z,49.30
2018-06-20T11:58:57.804Z,49.60
2018-06-20T12:01:31.040Z,49.70
2018-06-20T12:04:04.293Z,49.90
2018-06-20T12:06:37.453Z,50.60
2018-06-20T12:09:11.258Z,50.10
2018-06-20T12:11:44.735Z,50.00
2018-06-20T12:14:18.037Z,50.00
2018-06-20T12:16:48.368Z,49.70
2018-06-20T12:19:22.343Z,50.00
2018-06-20T12:21:55.569Z,50.10
2018-06-20T12:24:28.864Z,49.50
2018-06-20T12:27:01.928Z,49.70
2018-06-20T12:29:35.145Z,49.70
2018-06-20T12:32:08.339Z,49.80
2018-06-20T12:34:41.903Z,50.00
2018-06-20T12:37:15.017Z,50.00
2018-06-20T12:39:41.973Z,50.10
2018-06-20T12:44:48.636Z,49.70
2018-06-20T12:47:21.132Z,49.00
2018-06-20T12:50:00.759Z,49.30
2018-06-20T12:52:28.320Z,49.60
2018-06-20T12:54:55.716Z,49.90
2018-06-20T12:57:23.152Z,49.10
2018-06-20T12:59:50.590Z,49.20
2018-06-20T13:02:18.017Z,49.00
2018-06-20T13:04:45.451Z,49.20
2018-06-20T13:07:12.876Z,49.30
2018-06-20T13:09:40.334Z,48.90
2018-06-20T13:12:08.297Z,49.20
2018-06-20T13:14:35.745Z,49.20
2018-06-20T13:17:03.188Z,49.10
2018-06-20T13:19:30.670Z,48.60
2018-06-20T13:21:58.160Z,48.30
2018-06-20T13:24:26.090Z,48.00
2018-06-20T13:26:53.608Z,48.10
2018-06-20T13:29:21.037Z,48.00
2018-06-20T13:31:54.156Z,47.40
2018-06-20T13:34:27.509Z,47.20
2018-06-20T13:37:00.800Z,47.30
2018-06-20T13:39:34.090Z,46.70
2018-06-20T13:42:04.671Z,46.40
2018-06-20T13:44:32.158Z,46.50
2018-06-20T13:47:05.219Z,46.50
2018-06-20T13:49:32.846Z,47.00
2018-06-20T13:52:00.348Z,46.50
2018-06-20T13:54:27.821Z,46.30
2018-06-20T13:59:23.217Z,45.90
2018-06-20T14:01:50.695Z,45.20
2018-06-20T14:04:18.162Z,45.10
2018-06-20T14:06:45.588Z,45.30
2018-06-20T14:09:13.094Z,45.40
2018-06-20T14:11:41.309Z,45.10
2018-06-20T14:14:08.768Z,45.00
2018-06-20T14:16:36.210Z,45.00
2018-06-20T14:19:03.871Z,44.80
2018-06-20T14:21:36.487Z,44.80
2018-06-20T14:24:04.759Z,43.70
2018-06-20T14:26:32.144Z,43.50
2018-06-20T14:28:59.615Z,43.30
2018-06-20T14:31:32.679Z,43.60
2018-06-20T14:34:05.895Z,44.00
2018-06-20T14:36:39.019Z,43.70
2018-06-20T14:39:13.496Z,43.30
2018-06-20T14:41:47.178Z,43.80
2018-06-20T14:44:14.728Z,43.70
2018-06-20T14:46:42.159Z,43.30
2018-06-20T14:49:09.587Z,42.30
2018-06-20T14:51:37.032Z,42.60
2018-06-20T14:54:04.453Z,42.30
2018-06-20T14:56:31.967Z,42.30
2018-06-20T14:58:59.404Z,42.40
2018-06-20T15:01:26.815Z,41.60
2018-06-20T15:03:54.245Z,41.50
2018-06-20T15:06:21.988Z,41.50
2018-06-20T15:08:49.435Z,41.40
2018-06-20T15:11:16.946Z,41.60
2018-06-20T15:13:44.316Z,41.20
2018-06-20T15:16:17.306Z,40.90
2018-06-20T15:18:45.058Z,40.80
2018-06-20T15:21:12.541Z,41.50
2018-06-20T15:23:39.989Z,41.00
2018-06-20T15:26:13.204Z,41.70
2018-06-20T15:28:46.267Z,41.30
2018-06-20T15:31:19.483Z,41.30
2018-06-20T15:33:52.658Z,40.30
2018-06-20T15:36:26.186Z,40.00
2018-06-20T15:38:53.605Z,40.00
2018-06-20T15:41:21.107Z,39.40
2018-06-20T15:43:48.561Z,40.00
2018-06-20T15:46:15.984Z,39.80
2018-06-20T15:48:43.395Z,39.60
2018-06-20T15:51:10.880Z,39.10
2018-06-20T15:53:38.355Z,39.30
2018-06-20T15:58:33.205Z,39.60
2018-06-20T16:01:00.649Z,40.20
2018-06-20T16:03:28.079Z,38.80
2018-06-20T16:05:55.473Z,38.50
2018-06-20T16:08:22.919Z,39.20
2018-06-20T16:10:50.420Z,39.30
2018-06-20T16:13:18.444Z,39.60
2018-06-20T16:15:45.919Z,39.30
2018-06-20T16:18:13.388Z,39.90
2018-06-20T16:20:46.529Z,39.20
2018-06-20T16:23:19.779Z,39.20
2018-06-20T16:28:26.222Z,38.90
2018-06-20T16:30:53.632Z,39.00
2018-06-20T16:33:21.107Z,39.00
2018-06-20T16:35:48.615Z,39.40
2018-06-20T16:38:16.160Z,39.40
2018-06-20T16:40:43.544Z,39.40
2018-06-20T16:43:11.008Z,39.30
2018-06-20T16:45:38.423Z,39.10
2018-06-20T16:48:05.848Z,38.90
2018-06-20T16:50:33.255Z,39.10
2018-06-20T16:53:00.651Z,40.00
2018-06-20T16:57:55.459Z,38.90
2018-06-20T17:00:22.897Z,38.90
2018-06-20T17:02:50.716Z,39.60
2018-06-20T17:05:18.121Z,39.60
2018-06-20T17:07:45.545Z,40.00
2018-06-20T17:10:12.958Z,40.20
2018-06-20T17:12:46.261Z,39.80
2018-06-20T17:17:52.648Z,39.10
2018-06-20T17:20:26.189Z,39.20
2018-06-20T17:22:59.522Z,39.50
2018-06-20T17:25:30.363Z,39.10
2018-06-20T17:27:57.814Z,39.00
2018-06-20T17:30:25.381Z,39.20
2018-06-20T17:32:53.001Z,40.00
2018-06-20T17:35:20.454Z,39.40
2018-06-20T17:37:47.860Z,38.60
2018-06-20T17:40:15.358Z,38.80
2018-06-20T17:42:42.813Z,38.30
2018-06-20T17:45:10.222Z,37.70
2018-06-20T17:47:37.658Z,37.80
2018-06-20T17:50:05.155Z,37.50
2018-06-20T17:52:32.555Z,37.60
2018-06-20T17:54:59.968Z,37.70
2018-06-20T17:57:27.379Z,38.10
2018-06-20T17:59:54.795Z,38.30
2018-06-20T18:02:22.225Z,38.00
2018-06-20T18:04:55.202Z,38.40
2018-06-20T18:07:28.289Z,38.70
2018-06-20T18:10:01.488Z,38.20
2018-06-20T18:12:34.515Z,38.50
2018-06-20T18:15:07.676Z,38.70
2018-06-20T18:17:35.156Z,38.50
2018-06-20T18:20:02.621Z,38.80
2018-06-20T18:22:30.047Z,38.50
2018-06-20T18:24:57.475Z,39.00
2018-06-20T18:27:24.916Z,39.20
2018-06-20T18:29:52.377Z,39.40
2018-06-20T18:32:19.823Z,39.70
2018-06-20T18:34:47.327Z,40.10
2018-06-20T18:37:14.884Z,40.20
2018-06-20T18:39:48.043Z,40.20
2018-06-20T18:42:15.371Z,40.40
2018-06-20T18:44:43.596Z,40.30
2018-06-20T18:47:15.769Z,40.40
2018-06-20T18:49:43.467Z,40.60
2018-06-20T18:52:11.381Z,41.10
2018-06-20T18:54:38.826Z,41.10
2018-06-20T18:57:10.917Z,41.10
2018-06-20T18:59:44.003Z,41.40
2018-06-20T19:02:17.205Z,41.50
2018-06-20T19:04:50.265Z,41.90
2018-06-20T19:07:23.473Z,41.90
2018-06-20T19:09:50.978Z,41.90
2018-06-20T19:12:18.328Z,42.10
2018-06-20T19:14:45.737Z,42.00
2018-06-20T19:17:13.136Z,42.00
2018-06-20T19:19:40.605Z,42.00
2018-06-20T19:22:08.063Z,42.00
2018-06-20T19:24:35.481Z,42.00
2018-06-20T19:29:30.363Z,41.60
2018-06-20T19:34:25.173Z,42.60
2018-06-20T19:36:52.597Z,42.10
2018-06-20T19:39:25.898Z,42.50
2018-06-20T19:41:53.293Z,42.90
2018-06-20T19:44:26.365Z,43.20
2018-06-20T19:46:54.044Z,43.60
2018-06-20T19:49:21.468Z,44.00
2018-06-20T19:51:48.949Z,44.40
2018-06-20T19:54:16.360Z,44.70
2018-06-20T19:59:11.121Z,45.20
2018-06-20T20:01:38.622Z,45.40
2018-06-20T20:04:06.089Z,45.70
2018-06-20T20:06:33.464Z,46.00
2018-06-20T20:09:00.871Z,46.20
2018-06-20T20:11:28.239Z,46.40
2018-06-20T20:16:23.037Z,47.30
2018-06-20T20:18:50.444Z,47.10
2018-06-20T20:21:17.830Z,47.50
2018-06-20T20:23:45.360Z,47.60
2018-06-20T20:26:12.794Z,47.80
2018-06-20T20:31:07.792Z,48.10
2018-06-20T20:33:35.457Z,48.40
2018-06-20T20:36:02.884Z,48.50
2018-06-20T20:38:30.676Z,49.10
2018-06-20T20:40:58.063Z,49.20
2018-06-20T20:43:25.480Z,49.30
2018-06-20T20:45:52.948Z,49.50
2018-06-20T20:48:20.399Z,49.80
2018-06-20T20:50:47.845Z,49.90
2018-06-20T20:53:15.641Z,50.00
2018-06-20T20:55:43.390Z,50.10
2018-06-20T20:58:10.928Z,50.40
2018-06-20T21:00:38.604Z,50.40
2018-06-20T21:03:06.014Z,50.70
2018-06-20T21:05:33.415Z,50.60
2018-06-20T21:08:01.731Z,50.60
2018-06-20T21:10:29.127Z,51.50
2018-06-20T21:12:56.584Z,51.00
2018-06-20T21:15:23.997Z,50.60
2018-06-20T21:17:51.405Z,51.00
2018-06-20T21:20:18.924Z,51.40
2018-06-20T21:22:46.328Z,51.50
2018-06-20T21:25:13.736Z,51.60
2018-06-20T21:27:41.110Z,51.70
2018-06-20T21:30:08.474Z,52.00
2018-06-20T21:32:35.861Z,52.20
2018-06-20T21:35:03.246Z,52.40
2018-06-20T21:37:30.643Z,52.40
2018-06-20T21:42:25.400Z,53.00
2018-06-20T21:44:52.754Z,53.30
2018-06-20T21:47:20.139Z,53.40
2018-06-20T21:49:47.548Z,53.60
2018-06-20T21:52:15.252Z,53.90
2018-06-20T21:54:42.666Z,54.00
2018-06-20T21:59:37.407Z,54.50
2018-06-20T22:02:04.796Z,54.50
2018-06-20T22:04:32.248Z,54.50
2018-06-20T22:06:59.684Z,54.50
2018-06-20T22:09:27.101Z,54.60
2018-06-20T22:11:54.478Z,54.60
2018-06-20T22:14:21.880Z,54.80
2018-06-20T22:19:16.687Z,55.30
2018-06-20T22:21:44.127Z,55.30
2018-06-20T22:24:11.523Z,55.50
2018-06-20T22:26:38.964Z,55.70
2018-06-20T22:29:06.399Z,56.00
2018-06-20T22:31:33.865Z,56.00
2018-06-20T22:34:01.284Z,56.30
2018-06-20T22:36:28.757Z,56.30
2018-06-20T22:38:56.241Z,56.20
2018-06-20T22:41:23.806Z,56.30
2018-06-20T22:43:51.233Z,56.30
2018-06-20T22:46:18.744Z,56.30
2018-06-20T22:48:46.213Z,56.40
2018-06-20T22:51:13.669Z,56.20
2018-06-20T22:53:41.256Z,56.10
2018-06-20T22:56:09.022Z,56.30
2018-06-20T22:58:36.696Z,56.50
2018-06-20T23:01:04.180Z,56.40
2018-06-20T23:03:31.635Z,56.40
2018-06-20T23:05:59.141Z,56.60
2018-06-20T23:08:26.624Z,56.70
2018-06-20T23:10:54.103Z,56.80
2018-06-20T23:13:21.625Z,56.70
2018-06-20T23:15:49.140Z,56.80
2018-06-20T23:18:16.602Z,57.00
2018-06-20T23:20:44.621Z,57.00
2018-06-20T23:23:12.111Z,57.00
2018-06-20T23:25:39.689Z,57.10
2018-06-20T23:28:07.310Z,57.30
2018-06-20T23:33:02.326Z,57.40
2018-06-20T23:35:29.792Z,57.50
2018-06-20T23:37:57.242Z,57.10
2018-06-20T23:40:25.147Z,57.70
2018-06-20T23:42:52.624Z,57.70
2018-06-20T23:45:20.132Z,57.60
2018-06-20T23:47:47.593Z,57.80
2018-06-20T23:50:15.052Z,57.80
2018-06-20T23:52:42.554Z,58.00
2018-06-20T23:55:10.058Z,58.30
2018-06-20T23:57:37.517Z,58.10
